sensor_id;sensor_type;location;lat;lon;timestamp;pressure;altitude;pressure_sealevel;temperature;humidity
70198;BME280;57582;-34.876;138.628;2023-01-23T00:01:43;100621;;;28.45;33.87
70198;BME280;57582;-34.876;138.628;2023-01-23T00:04:42;100620;;;28.59;32.96
70198;BME280;57582;-34.876;138.628;2023-01-23T00:07:43;100623;;;28.82;32.96
70198;BME280;57582;-34.876;138.628;2023-01-23T00:10:42;100611;;;28.89;31.55
70198;BME280;57582;-34.876;138.628;2023-01-23T00:13:43;100611;;;28.66;32.02
70198;BME280;57582;-34.876;138.628;2023-01-23T00:16:42;100611;;;28.28;31.56
70198;BME280;57582;-34.876;138.628;2023-01-23T00:19:43;100611;;;28.48;32.58
70198;BME280;57582;-34.876;138.628;2023-01-23T00:22:42;100605;;;28.43;31.43
70198;BME280;57582;-34.876;138.628;2023-01-23T00:25:43;100604;;;28.35;32.73
70198;BME280;57582;-34.876;138.628;2023-01-23T00:28:42;100613;;;28.31;31.68
70198;BME280;57582;-34.876;138.628;2023-01-23T00:31:43;100609;;;28.57;32.12
70198;BME280;57582;-34.876;138.628;2023-01-23T00:34:43;100609;;;28.96;31.83
70198;BME280;57582;-34.876;138.628;2023-01-23T00:37:43;100600;;;29.14;29.59
70198;BME280;57582;-34.876;138.628;2023-01-23T00:40:42;100600;;;28.97;29.78
70198;BME280;57582;-34.876;138.628;2023-01-23T00:43:43;100592;;;29.05;28.78
70198;BME280;57582;-34.876;138.628;2023-01-23T00:46:42;100589;;;29.24;31.17
70198;BME280;57582;-34.876;138.628;2023-01-23T00:49:43;100593;;;29.52;30.82
70198;BME280;57582;-34.876;138.628;2023-01-23T00:52:42;100585;;;29.81;30.29
70198;BME280;57582;-34.876;138.628;2023-01-23T00:55:43;100587;;;30.01;29.46
70198;BME280;57582;-34.876;138.628;2023-01-23T00:58:42;100586;;;30.09;29.22
70198;BME280;57582;-34.876;138.628;2023-01-23T01:01:43;100584;;;30.33;28.88
70198;BME280;57582;-34.876;138.628;2023-01-23T01:04:42;100578;;;30.53;28.34
70198;BME280;57582;-34.876;138.628;2023-01-23T01:07:44;100571;;;30.83;32.52
70198;BME280;57582;-34.876;138.628;2023-01-23T01:10:43;100574;;;30.97;32.73
70198;BME280;57582;-34.876;138.628;2023-01-23T01:13:43;100570;;;31.09;32.90
70198;BME280;57582;-34.876;138.628;2023-01-23T01:16:42;100577;;;31.13;32.17
70198;BME280;57582;-34.876;138.628;2023-01-23T01:19:43;100585;;;31.12;32.92
70198;BME280;57582;-34.876;138.628;2023-01-23T01:22:42;100579;;;30.92;32.82
70198;BME280;57582;-34.876;138.628;2023-01-23T01:25:43;100573;;;30.87;32.54
70198;BME280;57582;-34.876;138.628;2023-01-23T01:28:42;100574;;;30.52;32.85
70198;BME280;57582;-34.876;138.628;2023-01-23T01:31:43;100569;;;30.54;33.70
70198;BME280;57582;-34.876;138.628;2023-01-23T01:34:42;100567;;;30.60;33.60
70198;BME280;57582;-34.876;138.628;2023-01-23T01:37:43;100567;;;30.70;33.60
70198;BME280;57582;-34.876;138.628;2023-01-23T01:40:42;100567;;;30.59;33.29
70198;BME280;57582;-34.876;138.628;2023-01-23T01:43:43;100562;;;30.42;33.81
70198;BME280;57582;-34.876;138.628;2023-01-23T01:46:43;100567;;;30.26;34.14
70198;BME280;57582;-34.876;138.628;2023-01-23T01:49:43;100561;;;30.24;35.03
70198;BME280;57582;-34.876;138.628;2023-01-23T01:52:42;100561;;;30.12;34.53
70198;BME280;57582;-34.876;138.628;2023-01-23T01:55:43;100554;;;30.01;35.12
70198;BME280;57582;-34.876;138.628;2023-01-23T01:58:43;100550;;;29.53;35.92
70198;BME280;57582;-34.876;138.628;2023-01-23T02:01:44;100556;;;29.45;36.10
70198;BME280;57582;-34.876;138.628;2023-01-23T02:04:46;100543;;;29.44;36.23
70198;BME280;57582;-34.876;138.628;2023-01-23T02:07:46;100539;;;29.39;35.90
70198;BME280;57582;-34.876;138.628;2023-01-23T02:10:43;100545;;;29.33;36.84
70198;BME280;57582;-34.876;138.628;2023-01-23T02:13:44;100548;;;29.39;36.26
70198;BME280;57582;-34.876;138.628;2023-01-23T02:16:43;100542;;;29.39;36.03
70198;BME280;57582;-34.876;138.628;2023-01-23T02:19:48;100538;;;29.52;35.64
70198;BME280;57582;-34.876;138.628;2023-01-23T02:28:44;100529;;;29.70;35.18
70198;BME280;57582;-34.876;138.628;2023-01-23T02:31:44;100528;;;29.68;34.78
70198;BME280;57582;-34.876;138.628;2023-01-23T02:34:43;100526;;;29.55;35.15
70198;BME280;57582;-34.876;138.628;2023-01-23T02:37:44;100514;;;29.53;35.47
70198;BME280;57582;-34.876;138.628;2023-01-23T02:40:43;100517;;;29.41;36.15
70198;BME280;57582;-34.876;138.628;2023-01-23T02:43:43;100509;;;29.67;36.61
70198;BME280;57582;-34.876;138.628;2023-01-23T02:46:43;100506;;;29.88;37.50
70198;BME280;57582;-34.876;138.628;2023-01-23T02:49:44;100511;;;30.15;37.05
70198;BME280;57582;-34.876;138.628;2023-01-23T02:52:43;100500;;;30.43;36.47
70198;BME280;57582;-34.876;138.628;2023-01-23T02:55:43;100493;;;30.67;35.53
70198;BME280;57582;-34.876;138.628;2023-01-23T02:58:43;100486;;;30.85;34.81
70198;BME280;57582;-34.876;138.628;2023-01-23T03:01:43;100483;;;30.98;34.63
70198;BME280;57582;-34.876;138.628;2023-01-23T03:04:43;100483;;;30.97;33.39
70198;BME280;57582;-34.876;138.628;2023-01-23T03:07:43;100475;;;30.78;33.79
70198;BME280;57582;-34.876;138.628;2023-01-23T03:10:43;100466;;;30.57;34.93
70198;BME280;57582;-34.876;138.628;2023-01-23T03:13:44;100467;;;30.50;35.53
70198;BME280;57582;-34.876;138.628;2023-01-23T03:16:43;100467;;;30.67;35.15
70198;BME280;57582;-34.876;138.628;2023-01-23T03:19:43;100454;;;30.72;33.92
70198;BME280;57582;-34.876;138.628;2023-01-23T03:22:43;100452;;;30.71;34.26
70198;BME280;57582;-34.876;138.628;2023-01-23T03:25:43;100449;;;30.89;33.85
70198;BME280;57582;-34.876;138.628;2023-01-23T03:28:43;100445;;;31.07;34.56
70198;BME280;57582;-34.876;138.628;2023-01-23T03:31:44;100437;;;31.25;34.00
70198;BME280;57582;-34.876;138.628;2023-01-23T03:34:43;100432;;;31.58;33.27
70198;BME280;57582;-34.876;138.628;2023-01-23T03:37:43;100420;;;31.88;32.01
70198;BME280;57582;-34.876;138.628;2023-01-23T03:40:43;100423;;;32.08;31.99
70198;BME280;57582;-34.876;138.628;2023-01-23T03:43:43;100411;;;32.06;31.14
70198;BME280;57582;-34.876;138.628;2023-01-23T03:46:43;100406;;;31.96;30.36
70198;BME280;57582;-34.876;138.628;2023-01-23T03:49:44;100407;;;31.81;30.26
70198;BME280;57582;-34.876;138.628;2023-01-23T03:52:43;100398;;;31.77;30.76
70198;BME280;57582;-34.876;138.628;2023-01-23T03:55:45;100391;;;32.00;29.60
70198;BME280;57582;-34.876;138.628;2023-01-23T03:58:43;100382;;;32.26;28.83
70198;BME280;57582;-34.876;138.628;2023-01-23T04:01:43;100383;;;32.52;29.25
70198;BME280;57582;-34.876;138.628;2023-01-23T04:04:43;100369;;;32.62;26.97
70198;BME280;57582;-34.876;138.628;2023-01-23T04:07:43;100367;;;32.78;26.60
70198;BME280;57582;-34.876;138.628;2023-01-23T04:10:43;100354;;;33.08;23.57
70198;BME280;57582;-34.876;138.628;2023-01-23T04:13:43;100356;;;33.33;24.20
70198;BME280;57582;-34.876;138.628;2023-01-23T04:16:43;100356;;;33.47;23.63
70198;BME280;57582;-34.876;138.628;2023-01-23T04:19:43;100352;;;33.61;22.13
70198;BME280;57582;-34.876;138.628;2023-01-23T04:22:43;100351;;;32.20;23.14
70198;BME280;57582;-34.876;138.628;2023-01-23T04:25:43;100342;;;32.52;25.24
70198;BME280;57582;-34.876;138.628;2023-01-23T04:28:43;100336;;;32.83;24.69
70198;BME280;57582;-34.876;138.628;2023-01-23T04:31:43;100315;;;32.72;24.24
70198;BME280;57582;-34.876;138.628;2023-01-23T04:34:43;100317;;;33.09;24.42
70198;BME280;57582;-34.876;138.628;2023-01-23T04:37:43;100303;;;33.33;24.68
70198;BME280;57582;-34.876;138.628;2023-01-23T04:40:43;100312;;;33.62;25.04
70198;BME280;57582;-34.876;138.628;2023-01-23T04:43:43;100307;;;33.66;22.76
70198;BME280;57582;-34.876;138.628;2023-01-23T04:46:43;100310;;;33.36;23.22
70198;BME280;57582;-34.876;138.628;2023-01-23T04:49:43;100307;;;33.25;22.86
70198;BME280;57582;-34.876;138.628;2023-01-23T04:52:43;100313;;;33.07;22.89
70198;BME280;57582;-34.876;138.628;2023-01-23T04:55:45;100305;;;32.94;22.92
70198;BME280;57582;-34.876;138.628;2023-01-23T04:58:43;100302;;;32.96;23.45
70198;BME280;57582;-34.876;138.628;2023-01-23T05:01:43;100304;;;32.80;23.44
70198;BME280;57582;-34.876;138.628;2023-01-23T05:04:43;100304;;;32.84;23.50
70198;BME280;57582;-34.876;138.628;2023-01-23T05:07:43;100297;;;32.80;23.43
70198;BME280;57582;-34.876;138.628;2023-01-23T05:10:43;100299;;;32.69;23.65
70198;BME280;57582;-34.876;138.628;2023-01-23T05:13:43;100293;;;32.60;24.09
70198;BME280;57582;-34.876;138.628;2023-01-23T05:16:43;100293;;;32.46;23.96
70198;BME280;57582;-34.876;138.628;2023-01-23T05:19:43;100281;;;32.29;24.04
70198;BME280;57582;-34.876;138.628;2023-01-23T05:22:43;100274;;;32.21;25.05
70198;BME280;57582;-34.876;138.628;2023-01-23T05:25:43;100277;;;32.30;25.17
70198;BME280;57582;-34.876;138.628;2023-01-23T05:28:43;100272;;;32.45;24.38
70198;BME280;57582;-34.876;138.628;2023-01-23T05:31:43;100269;;;32.57;23.52
70198;BME280;57582;-34.876;138.628;2023-01-23T05:34:43;100270;;;32.56;24.00
70198;BME280;57582;-34.876;138.628;2023-01-23T05:37:48;100270;;;32.49;24.21
70198;BME280;57582;-34.876;138.628;2023-01-23T05:40:43;100261;;;32.51;24.18
70198;BME280;57582;-34.876;138.628;2023-01-23T05:43:43;100258;;;32.49;23.99
70198;BME280;57582;-34.876;138.628;2023-01-23T05:46:43;100267;;;32.51;24.85
70198;BME280;57582;-34.876;138.628;2023-01-23T05:49:43;100260;;;32.39;23.89
70198;BME280;57582;-34.876;138.628;2023-01-23T05:52:43;100255;;;32.33;23.83
70198;BME280;57582;-34.876;138.628;2023-01-23T05:55:43;100257;;;32.44;23.42
70198;BME280;57582;-34.876;138.628;2023-01-23T05:58:43;100250;;;32.61;23.75
70198;BME280;57582;-34.876;138.628;2023-01-23T06:01:43;100242;;;32.74;23.93
70198;BME280;57582;-34.876;138.628;2023-01-23T06:04:45;100238;;;32.74;23.73
70198;BME280;57582;-34.876;138.628;2023-01-23T06:07:43;100242;;;32.75;23.90
70198;BME280;57582;-34.876;138.628;2023-01-23T06:10:43;100243;;;32.70;24.08
70198;BME280;57582;-34.876;138.628;2023-01-23T06:13:43;100233;;;32.64;23.68
70198;BME280;57582;-34.876;138.628;2023-01-23T06:16:43;100233;;;32.57;23.36
70198;BME280;57582;-34.876;138.628;2023-01-23T06:19:43;100234;;;32.44;23.62
70198;BME280;57582;-34.876;138.628;2023-01-23T06:22:43;100240;;;32.44;24.24
70198;BME280;57582;-34.876;138.628;2023-01-23T06:25:44;100231;;;32.25;24.31
70198;BME280;57582;-34.876;138.628;2023-01-23T06:28:43;100225;;;32.25;24.25
70198;BME280;57582;-34.876;138.628;2023-01-23T06:31:43;100237;;;32.21;24.00
70198;BME280;57582;-34.876;138.628;2023-01-23T06:34:43;100229;;;32.17;24.49
70198;BME280;57582;-34.876;138.628;2023-01-23T06:37:44;100230;;;32.06;24.11
70198;BME280;57582;-34.876;138.628;2023-01-23T06:40:43;100223;;;32.06;24.37
70198;BME280;57582;-34.876;138.628;2023-01-23T06:43:43;100223;;;32.06;24.40
70198;BME280;57582;-34.876;138.628;2023-01-23T06:46:43;100232;;;32.07;24.32
70198;BME280;57582;-34.876;138.628;2023-01-23T06:49:43;100231;;;31.98;25.02
70198;BME280;57582;-34.876;138.628;2023-01-23T06:52:43;100250;;;31.16;30.80
70198;BME280;57582;-34.876;138.628;2023-01-23T06:55:44;100257;;;29.75;33.86
70198;BME280;57582;-34.876;138.628;2023-01-23T06:58:43;100253;;;28.95;35.95
70198;BME280;57582;-34.876;138.628;2023-01-23T07:01:43;100246;;;28.78;36.39
70198;BME280;57582;-34.876;138.628;2023-01-23T07:04:43;100240;;;28.48;36.93
70198;BME280;57582;-34.876;138.628;2023-01-23T07:07:44;100232;;;28.70;36.94
70198;BME280;57582;-34.876;138.628;2023-01-23T07:10:43;100228;;;28.85;36.60
70198;BME280;57582;-34.876;138.628;2023-01-23T07:13:45;100230;;;28.99;36.25
70198;BME280;57582;-34.876;138.628;2023-01-23T07:16:43;100218;;;29.00;36.77
70198;BME280;57582;-34.876;138.628;2023-01-23T07:19:43;100224;;;29.06;36.10
70198;BME280;57582;-34.876;138.628;2023-01-23T07:22:43;100214;;;29.44;36.01
70198;BME280;57582;-34.876;138.628;2023-01-23T07:25:43;100218;;;29.82;33.74
70198;BME280;57582;-34.876;138.628;2023-01-23T07:28:43;100217;;;29.88;32.67
70198;BME280;57582;-34.876;138.628;2023-01-23T07:31:43;100215;;;29.71;31.25
70198;BME280;57582;-34.876;138.628;2023-01-23T07:34:43;100202;;;29.54;31.10
70198;BME280;57582;-34.876;138.628;2023-01-23T07:37:43;100203;;;29.78;30.40
70198;BME280;57582;-34.876;138.628;2023-01-23T07:40:43;100192;;;29.83;29.40
70198;BME280;57582;-34.876;138.628;2023-01-23T07:43:44;100198;;;29.80;29.09
70198;BME280;57582;-34.876;138.628;2023-01-23T07:46:44;100199;;;29.77;28.64
70198;BME280;57582;-34.876;138.628;2023-01-23T07:49:44;100194;;;29.79;28.47
70198;BME280;57582;-34.876;138.628;2023-01-23T07:52:43;100193;;;29.87;28.55
70198;BME280;57582;-34.876;138.628;2023-01-23T07:55:44;100195;;;29.59;28.87
70198;BME280;57582;-34.876;138.628;2023-01-23T07:58:43;100196;;;29.52;29.09
70198;BME280;57582;-34.876;138.628;2023-01-23T08:01:43;100203;;;29.66;29.46
70198;BME280;57582;-34.876;138.628;2023-01-23T08:04:43;100210;;;29.63;29.56
70198;BME280;57582;-34.876;138.628;2023-01-23T08:07:43;100210;;;29.52;29.81
70198;BME280;57582;-34.876;138.628;2023-01-23T08:10:43;100214;;;29.49;30.02
70198;BME280;57582;-34.876;138.628;2023-01-23T08:13:47;100212;;;29.50;29.93
70198;BME280;57582;-34.876;138.628;2023-01-23T08:16:43;100211;;;29.20;30.35
70198;BME280;57582;-34.876;138.628;2023-01-23T08:19:44;100213;;;29.20;30.56
70198;BME280;57582;-34.876;138.628;2023-01-23T08:22:43;100217;;;29.29;30.49
70198;BME280;57582;-34.876;138.628;2023-01-23T08:25:43;100204;;;29.22;30.66
70198;BME280;57582;-34.876;138.628;2023-01-23T08:28:44;100211;;;29.30;30.80
70198;BME280;57582;-34.876;138.628;2023-01-23T08:31:43;100216;;;29.44;30.99
70198;BME280;57582;-34.876;138.628;2023-01-23T08:34:43;100232;;;29.47;30.69
70198;BME280;57582;-34.876;138.628;2023-01-23T08:37:43;100224;;;29.50;30.47
70198;BME280;57582;-34.876;138.628;2023-01-23T08:40:45;100221;;;29.43;30.42
70198;BME280;57582;-34.876;138.628;2023-01-23T08:43:43;100219;;;29.65;30.29
70198;BME280;57582;-34.876;138.628;2023-01-23T08:46:44;100227;;;29.69;29.84
70198;BME280;57582;-34.876;138.628;2023-01-23T08:49:43;100234;;;29.43;29.89
70198;BME280;57582;-34.876;138.628;2023-01-23T08:52:43;100236;;;29.32;30.12
70198;BME280;57582;-34.876;138.628;2023-01-23T08:55:43;100240;;;29.31;31.46
70198;BME280;57582;-34.876;138.628;2023-01-23T08:58:43;100246;;;29.38;32.26
70198;BME280;57582;-34.876;138.628;2023-01-23T09:01:43;100252;;;29.53;32.93
70198;BME280;57582;-34.876;138.628;2023-01-23T09:04:43;100257;;;29.65;32.86
70198;BME280;57582;-34.876;138.628;2023-01-23T09:07:44;100263;;;29.48;32.92
70198;BME280;57582;-34.876;138.628;2023-01-23T09:10:43;100261;;;29.47;32.84
70198;BME280;57582;-34.876;138.628;2023-01-23T09:13:44;100268;;;29.36;33.18
70198;BME280;57582;-34.876;138.628;2023-01-23T09:16:43;100273;;;29.24;33.71
70198;BME280;57582;-34.876;138.628;2023-01-23T09:25:44;100262;;;28.94;34.15
70198;BME280;57582;-34.876;138.628;2023-01-23T09:28:43;100262;;;28.83;34.42
70198;BME280;57582;-34.876;138.628;2023-01-23T09:31:43;100271;;;28.77;34.76
70198;BME280;57582;-34.876;138.628;2023-01-23T09:34:43;100275;;;28.72;34.83
70198;BME280;57582;-34.876;138.628;2023-01-23T09:37:44;100293;;;28.53;35.41
70198;BME280;57582;-34.876;138.628;2023-01-23T09:40:51;100296;;;28.50;35.48
70198;BME280;57582;-34.876;138.628;2023-01-23T09:43:46;100299;;;28.40;36.25
70198;BME280;57582;-34.876;138.628;2023-01-23T09:46:46;100308;;;28.29;36.56
70198;BME280;57582;-34.876;138.628;2023-01-23T09:49:46;100312;;;28.26;36.67
70198;BME280;57582;-34.876;138.628;2023-01-23T09:52:44;100318;;;28.23;36.79
70198;BME280;57582;-34.876;138.628;2023-01-23T09:55:48;100312;;;28.17;36.68
70198;BME280;57582;-34.876;138.628;2023-01-23T09:59:36;100316;;;28.08;36.48
70198;BME280;57582;-34.876;138.628;2023-01-23T10:01:44;100314;;;27.98;36.85
70198;BME280;57582;-34.876;138.628;2023-01-23T10:04:43;100313;;;27.89;36.72
70198;BME280;57582;-34.876;138.628;2023-01-23T10:07:50;100318;;;27.23;37.68
70198;BME280;57582;-34.876;138.628;2023-01-23T10:16:48;100312;;;26.72;39.20
70198;BME280;57582;-34.876;138.628;2023-01-23T10:25:44;100315;;;26.02;40.31
70198;BME280;57582;-34.876;138.628;2023-01-23T10:28:43;100322;;;25.96;40.52
70198;BME280;57582;-34.876;138.628;2023-01-23T10:31:47;100331;;;25.66;40.92
70198;BME280;57582;-34.876;138.628;2023-01-23T10:34:50;100346;;;25.52;41.48
70198;BME280;57582;-34.876;138.628;2023-01-23T10:37:47;100367;;;25.80;41.02
70198;BME280;57582;-34.876;138.628;2023-01-23T10:40:45;100382;;;25.87;41.07
70198;BME280;57582;-34.876;138.628;2023-01-23T10:43:46;100397;;;26.11;40.31
70198;BME280;57582;-34.876;138.628;2023-01-23T10:46:46;100415;;;25.94;40.35
70198;BME280;57582;-34.876;138.628;2023-01-23T10:49:44;100422;;;25.86;40.38
70198;BME280;57582;-34.876;138.628;2023-01-23T10:52:44;100425;;;26.09;42.27
70198;BME280;57582;-34.876;138.628;2023-01-23T10:55:44;100425;;;26.18;41.17
70198;BME280;57582;-34.876;138.628;2023-01-23T10:58:43;100415;;;26.29;41.56
70198;BME280;57582;-34.876;138.628;2023-01-23T11:01:56;100435;;;26.24;40.28
70198;BME280;57582;-34.876;138.628;2023-01-23T11:04:45;100443;;;26.04;41.41
70198;BME280;57582;-34.876;138.628;2023-01-23T11:07:44;100441;;;25.98;41.44
70198;BME280;57582;-34.876;138.628;2023-01-23T11:10:43;100447;;;25.78;40.98
70198;BME280;57582;-34.876;138.628;2023-01-23T11:13:45;100462;;;25.60;42.35
70198;BME280;57582;-34.876;138.628;2023-01-23T11:16:43;100471;;;25.69;43.23
70198;BME280;57582;-34.876;138.628;2023-01-23T11:19:45;100471;;;25.86;43.39
70198;BME280;57582;-34.876;138.628;2023-01-23T11:22:43;100492;;;25.95;44.71
70198;BME280;57582;-34.876;138.628;2023-01-23T11:25:46;100506;;;26.11;44.65
70198;BME280;57582;-34.876;138.628;2023-01-23T11:28:45;100523;;;26.38;44.75
70198;BME280;57582;-34.876;138.628;2023-01-23T11:31:44;100531;;;26.63;45.28
70198;BME280;57582;-34.876;138.628;2023-01-23T11:34:46;100531;;;26.90;45.42
70198;BME280;57582;-34.876;138.628;2023-01-23T11:37:44;100538;;;27.13;45.28
70198;BME280;57582;-34.876;138.628;2023-01-23T11:40:43;100599;;;27.35;45.26
70198;BME280;57582;-34.876;138.628;2023-01-23T11:43:44;100630;;;27.03;45.88
70198;BME280;57582;-34.876;138.628;2023-01-23T12:17:01;100590;;;22.13;56.48
70198;BME280;57582;-34.876;138.628;2023-01-23T12:22:48;100595;;;21.67;57.83
70198;BME280;57582;-34.876;138.628;2023-01-23T12:25:47;100592;;;21.54;58.32
70198;BME280;57582;-34.876;138.628;2023-01-23T12:31:49;100564;;;21.32;59.38
70198;BME280;57582;-34.876;138.628;2023-01-23T12:34:51;100549;;;21.39;59.24
70198;BME280;57582;-34.876;138.628;2023-01-23T12:43:46;100527;;;21.10;59.13
70198;BME280;57582;-34.876;138.628;2023-01-23T12:47:10;100531;;;21.09;59.07
70198;BME280;57582;-34.876;138.628;2023-01-23T12:49:48;100521;;;21.29;58.71
70198;BME280;57582;-34.876;138.628;2023-01-23T12:52:52;100513;;;21.34;58.37
70198;BME280;57582;-34.876;138.628;2023-01-23T12:58:55;100477;;;21.69;56.91
70198;BME280;57582;-34.876;138.628;2023-01-23T13:07:46;100443;;;22.05;55.17
70198;BME280;57582;-34.876;138.628;2023-01-23T13:13:44;100433;;;22.25;54.07
70198;BME280;57582;-34.876;138.628;2023-01-23T13:16:44;100416;;;22.15;54.36
70198;BME280;57582;-34.876;138.628;2023-01-23T13:19:45;100413;;;22.17;54.42
70198;BME280;57582;-34.876;138.628;2023-01-23T13:22:44;100409;;;22.21;54.17
70198;BME280;57582;-34.876;138.628;2023-01-23T13:25:44;100408;;;22.30;53.85
70198;BME280;57582;-34.876;138.628;2023-01-23T13:31:44;100418;;;22.38;54.08
70198;BME280;57582;-34.876;138.628;2023-01-23T13:34:44;100418;;;22.16;54.81
70198;BME280;57582;-34.876;138.628;2023-01-23T13:40:49;100425;;;22.10;55.92
70198;BME280;57582;-34.876;138.628;2023-01-23T13:52:47;100430;;;23.31;51.60
70198;BME280;57582;-34.876;138.628;2023-01-23T13:55:45;100435;;;23.68;50.73
70198;BME280;57582;-34.876;138.628;2023-01-23T13:58:44;100424;;;23.83;50.17
70198;BME280;57582;-34.876;138.628;2023-01-23T14:01:47;100431;;;23.87;49.69
70198;BME280;57582;-34.876;138.628;2023-01-23T14:04:48;100441;;;24.04;49.21
70198;BME280;57582;-34.876;138.628;2023-01-23T14:07:45;100438;;;23.95;49.37
70198;BME280;57582;-34.876;138.628;2023-01-23T14:10:45;100438;;;23.26;51.32
70198;BME280;57582;-34.876;138.628;2023-01-23T14:13:46;100436;;;23.20;51.94
70198;BME280;57582;-34.876;138.628;2023-01-23T14:16:45;100434;;;22.86;52.50
70198;BME280;57582;-34.876;138.628;2023-01-23T14:19:53;100430;;;22.37;54.01
70198;BME280;57582;-34.876;138.628;2023-01-23T14:22:44;100417;;;21.83;55.60
70198;BME280;57582;-34.876;138.628;2023-01-23T14:25:44;100425;;;21.29;56.62
70198;BME280;57582;-34.876;138.628;2023-01-23T14:29:00;100435;;;21.10;57.75
70198;BME280;57582;-34.876;138.628;2023-01-23T14:31:44;100431;;;21.06;57.58
70198;BME280;57582;-34.876;138.628;2023-01-23T14:34:44;100431;;;21.28;56.94
70198;BME280;57582;-34.876;138.628;2023-01-23T14:37:44;100431;;;21.44;56.72
70198;BME280;57582;-34.876;138.628;2023-01-23T14:40:44;100417;;;21.28;57.25
70198;BME280;57582;-34.876;138.628;2023-01-23T14:43:44;100428;;;21.39;57.02
70198;BME280;57582;-34.876;138.628;2023-01-23T14:46:44;100436;;;21.40;56.92
70198;BME280;57582;-34.876;138.628;2023-01-23T14:49:44;100426;;;21.05;57.96
70198;BME280;57582;-34.876;138.628;2023-01-23T14:52:44;100422;;;21.02;58.04
70198;BME280;57582;-34.876;138.628;2023-01-23T14:55:45;100423;;;21.03;57.86
70198;BME280;57582;-34.876;138.628;2023-01-23T14:58:44;100433;;;20.59;59.00
70198;BME280;57582;-34.876;138.628;2023-01-23T15:01:57;100436;;;20.74;58.53
70198;BME280;57582;-34.876;138.628;2023-01-23T15:04:44;100428;;;20.82;58.12
70198;BME280;57582;-34.876;138.628;2023-01-23T15:07:49;100410;;;21.02;57.50
70198;BME280;57582;-34.876;138.628;2023-01-23T15:10:45;100417;;;20.99;57.26
70198;BME280;57582;-34.876;138.628;2023-01-23T15:13:45;100410;;;21.00;57.14
70198;BME280;57582;-34.876;138.628;2023-01-23T15:16:44;100416;;;20.77;57.88
70198;BME280;57582;-34.876;138.628;2023-01-23T15:19:48;100410;;;20.80;57.76
70198;BME280;57582;-34.876;138.628;2023-01-23T15:22:44;100405;;;20.79;57.71
70198;BME280;57582;-34.876;138.628;2023-01-23T15:25:44;100393;;;20.70;57.71
70198;BME280;57582;-34.876;138.628;2023-01-23T15:28:48;100399;;;20.62;57.57
70198;BME280;57582;-34.876;138.628;2023-01-23T15:31:46;100397;;;20.74;56.71
70198;BME280;57582;-34.876;138.628;2023-01-23T15:34:50;100397;;;20.75;56.33
70198;BME280;57582;-34.876;138.628;2023-01-23T15:37:46;100393;;;20.58;55.89
70198;BME280;57582;-34.876;138.628;2023-01-23T15:40:44;100391;;;20.73;55.40
70198;BME280;57582;-34.876;138.628;2023-01-23T15:43:45;100384;;;20.71;54.76
70198;BME280;57582;-34.876;138.628;2023-01-23T15:46:44;100380;;;20.67;54.44
70198;BME280;57582;-34.876;138.628;2023-01-23T15:49:44;100381;;;20.67;54.05
70198;BME280;57582;-34.876;138.628;2023-01-23T15:52:45;100379;;;20.70;53.86
70198;BME280;57582;-34.876;138.628;2023-01-23T15:55:44;100383;;;20.65;53.74
70198;BME280;57582;-34.876;138.628;2023-01-23T15:58:44;100385;;;20.89;53.12
70198;BME280;57582;-34.876;138.628;2023-01-23T16:01:44;100381;;;20.93;52.90
70198;BME280;57582;-34.876;138.628;2023-01-23T16:04:44;100386;;;20.61;54.43
70198;BME280;57582;-34.876;138.628;2023-01-23T16:07:45;100379;;;20.61;54.49
70198;BME280;57582;-34.876;138.628;2023-01-23T16:10:44;100375;;;20.74;54.33
70198;BME280;57582;-34.876;138.628;2023-01-23T16:13:44;100374;;;21.03;53.60
70198;BME280;57582;-34.876;138.628;2023-01-23T16:16:44;100368;;;21.03;53.75
70198;BME280;57582;-34.876;138.628;2023-01-23T16:19:44;100374;;;21.19;53.31
70198;BME280;57582;-34.876;138.628;2023-01-23T16:22:45;100363;;;21.33;52.87
70198;BME280;57582;-34.876;138.628;2023-01-23T16:25:45;100360;;;21.44;52.55
70198;BME280;57582;-34.876;138.628;2023-01-23T16:28:44;100356;;;21.57;52.22
70198;BME280;57582;-34.876;138.628;2023-01-23T16:31:45;100347;;;21.70;51.79
70198;BME280;57582;-34.876;138.628;2023-01-23T16:34:44;100345;;;21.32;52.19
70198;BME280;57582;-34.876;138.628;2023-01-23T16:37:46;100347;;;21.31;52.31
70198;BME280;57582;-34.876;138.628;2023-01-23T16:40:44;100342;;;21.28;52.25
70198;BME280;57582;-34.876;138.628;2023-01-23T16:43:44;100344;;;21.51;51.68
70198;BME280;57582;-34.876;138.628;2023-01-23T16:46:44;100344;;;21.41;51.30
70198;BME280;57582;-34.876;138.628;2023-01-23T16:49:45;100337;;;21.60;50.67
70198;BME280;57582;-34.876;138.628;2023-01-23T16:52:48;100329;;;21.72;49.52
70198;BME280;57582;-34.876;138.628;2023-01-23T16:55:45;100331;;;21.33;49.94
70198;BME280;57582;-34.876;138.628;2023-01-23T16:58:44;100337;;;21.39;49.57
70198;BME280;57582;-34.876;138.628;2023-01-23T17:01:45;100345;;;21.29;49.52
70198;BME280;57582;-34.876;138.628;2023-01-23T17:04:44;100342;;;21.33;49.75
70198;BME280;57582;-34.876;138.628;2023-01-23T17:07:45;100343;;;21.37;48.96
70198;BME280;57582;-34.876;138.628;2023-01-23T17:10:46;100342;;;21.12;49.65
70198;BME280;57582;-34.876;138.628;2023-01-23T17:13:44;100335;;;21.06;50.10